PGT61AC LTFJ-LTCG
Flight info
| Callsign | PGT61AC |
|---|---|
| Flight time | 1h 11m |
| Altitude | 37000 |
| Route | VICEN UT380 ASMAP UL333 LATGA UT363 ESB UT364 ILHAN UW71 TEMEL |
| Aircraft | A320/M-SDE3FGHIRWY/LB1 |
Departure
| Time | 2026-04-29 19:16 |
|---|---|
| Airport | Istanbul Sabiha Gökçen International Airport (LTFJ) |
Arrival
| Time | 2026-04-29 20:27 |
|---|---|
| Airport | Trabzon International Airport (LTCG) |
| Time | Latitude | Longitude | Altitude | Speed | Heading |
|---|---|---|---|---|---|
| 2026-04-29 18:23 | 40.90856 | 29.31903 | 310 ft | 0 kts | 244° |
| 2026-04-29 19:04 | 40.90862 | 29.31917 | 311 ft | 3 kts | 242° |
| 2026-04-29 19:04 | 40.90874 | 29.31943 | 311 ft | 3 kts | 228° |
| 2026-04-29 19:05 | 40.90891 | 29.31962 | 310 ft | 3 kts | 191° |
| 2026-04-29 19:05 | 40.90904 | 29.31961 | 310 ft | 0 kts | 154° |
| 2026-04-29 19:07 | 40.90903 | 29.31962 | 310 ft | 2 kts | 154° |
| 2026-04-29 19:07 | 40.90894 | 29.31968 | 309 ft | 2 kts | 152° |
| 2026-04-29 19:07 | 40.90873 | 29.31981 | 311 ft | 7 kts | 158° |
| 2026-04-29 19:07 | 40.90835 | 29.32043 | 311 ft | 9 kts | 118° |
| 2026-04-29 19:08 | 40.90788 | 29.32089 | 311 ft | 8 kts | 154° |
| 2026-04-29 19:08 | 40.90737 | 29.32121 | 311 ft | 8 kts | 154° |
| 2026-04-29 19:08 | 40.90695 | 29.32105 | 311 ft | 6 kts | 245° |
| 2026-04-29 19:08 | 40.90672 | 29.32040 | 310 ft | 14 kts | 244° |
| 2026-04-29 19:09 | 40.90622 | 29.31934 | 311 ft | 10 kts | 213° |
| 2026-04-29 19:09 | 40.90559 | 29.31951 | 311 ft | 9 kts | 153° |
| 2026-04-29 19:09 | 40.90493 | 29.31989 | 311 ft | 10 kts | 167° |
| 2026-04-29 19:09 | 40.90441 | 29.31941 | 311 ft | 11 kts | 242° |
| 2026-04-29 19:10 | 40.90399 | 29.31825 | 309 ft | 17 kts | 244° |
| 2026-04-29 19:10 | 40.90342 | 29.31671 | 309 ft | 19 kts | 244° |
| 2026-04-29 19:10 | 40.90288 | 29.31523 | 311 ft | 17 kts | 244° |
| 2026-04-29 19:10 | 40.90237 | 29.31384 | 310 ft | 16 kts | 244° |
| 2026-04-29 19:11 | 40.90189 | 29.31254 | 311 ft | 15 kts | 244° |
| 2026-04-29 19:11 | 40.90134 | 29.31106 | 310 ft | 22 kts | 244° |
| 2026-04-29 19:11 | 40.90068 | 29.30923 | 311 ft | 21 kts | 244° |
| 2026-04-29 19:11 | 40.90004 | 29.30754 | 311 ft | 20 kts | 243° |
| 2026-04-29 19:12 | 40.89946 | 29.30596 | 311 ft | 18 kts | 244° |
| 2026-04-29 19:12 | 40.89892 | 29.30451 | 310 ft | 17 kts | 244° |
| 2026-04-29 19:12 | 40.89841 | 29.30311 | 312 ft | 17 kts | 244° |
| 2026-04-29 19:12 | 40.89807 | 29.30218 | 309 ft | 16 kts | 244° |
| 2026-04-29 19:13 | 40.89742 | 29.30043 | 308 ft | 16 kts | 244° |
| 2026-04-29 19:13 | 40.89695 | 29.29915 | 307 ft | 16 kts | 244° |
| 2026-04-29 19:13 | 40.89642 | 29.29773 | 306 ft | 17 kts | 244° |
| 2026-04-29 19:13 | 40.89590 | 29.29630 | 304 ft | 18 kts | 244° |
| 2026-04-29 19:14 | 40.89536 | 29.29485 | 304 ft | 17 kts | 244° |
| 2026-04-29 19:14 | 40.89487 | 29.29349 | 305 ft | 16 kts | 244° |
| 2026-04-29 19:14 | 40.89425 | 29.29255 | 303 ft | 11 kts | 197° |
| 2026-04-29 19:14 | 40.89353 | 29.29280 | 304 ft | 11 kts | 154° |
| 2026-04-29 19:15 | 40.89290 | 29.29343 | 302 ft | 12 kts | 114° |
| 2026-04-29 19:15 | 40.89348 | 29.29548 | 306 ft | 50 kts | 63° |
| 2026-04-29 19:15 | 40.89601 | 29.30234 | 310 ft | 113 kts | 64° |
| 2026-04-29 19:15 | 40.90020 | 29.31368 | 331 ft | 158 kts | 61° |
| 2026-04-29 19:16 | 40.90494 | 29.32678 | 963 ft | 157 kts | 63° |
| 2026-04-29 19:16 | 40.90978 | 29.33978 | 1674 ft | 160 kts | 65° |
| 2026-04-29 19:16 | 40.91498 | 29.35391 | 2020 ft | 182 kts | 65° |
| 2026-04-29 19:16 | 40.92084 | 29.36989 | 2300 ft | 206 kts | 64° |
| 2026-04-29 19:17 | 40.92743 | 29.38801 | 2668 ft | 231 kts | 67° |
| 2026-04-29 19:17 | 40.93076 | 29.40969 | 3173 ft | 253 kts | 92° |
| 2026-04-29 19:17 | 40.92626 | 29.43243 | 4023 ft | 261 kts | 110° |
| 2026-04-29 19:17 | 40.91956 | 29.45502 | 4940 ft | 267 kts | 110° |
| 2026-04-29 19:18 | 40.91269 | 29.47811 | 5785 ft | 273 kts | 110° |
| 2026-04-29 19:18 | 40.90802 | 29.49371 | 6335 ft | 278 kts | 111° |
| 2026-04-29 19:18 | 40.89839 | 29.52602 | 7418 ft | 287 kts | 110° |
| 2026-04-29 19:18 | 40.89106 | 29.55081 | 8228 ft | 293 kts | 110° |
| 2026-04-29 19:19 | 40.88369 | 29.57574 | 9031 ft | 299 kts | 111° |
| 2026-04-29 19:19 | 40.87596 | 29.60156 | 9827 ft | 305 kts | 110° |
| 2026-04-29 19:19 | 40.86805 | 29.62816 | 10362 ft | 322 kts | 110° |
| 2026-04-29 19:19 | 40.85957 | 29.65671 | 10635 ft | 345 kts | 111° |
| 2026-04-29 19:20 | 40.85063 | 29.68694 | 11169 ft | 357 kts | 111° |
| 2026-04-29 19:20 | 40.84146 | 29.71775 | 11905 ft | 362 kts | 111° |
| 2026-04-29 19:20 | 40.83218 | 29.74889 | 12671 ft | 367 kts | 111° |
| 2026-04-29 19:20 | 40.82283 | 29.78035 | 13438 ft | 370 kts | 112° |
| 2026-04-29 19:21 | 40.81332 | 29.81211 | 14167 ft | 374 kts | 112° |
| 2026-04-29 19:21 | 40.80369 | 29.84424 | 14811 ft | 379 kts | 112° |
| 2026-04-29 19:21 | 40.79398 | 29.87680 | 15425 ft | 384 kts | 112° |
| 2026-04-29 19:21 | 40.78413 | 29.90970 | 16071 ft | 388 kts | 112° |
| 2026-04-29 19:22 | 40.77408 | 29.94293 | 16702 ft | 392 kts | 112° |
| 2026-04-29 19:22 | 40.76396 | 29.97654 | 17333 ft | 396 kts | 112° |
| 2026-04-29 19:22 | 40.75373 | 30.01050 | 17976 ft | 401 kts | 112° |
| 2026-04-29 19:22 | 40.74338 | 30.04487 | 18568 ft | 405 kts | 112° |
| 2026-04-29 19:23 | 40.73285 | 30.07953 | 19112 ft | 409 kts | 112° |
| 2026-04-29 19:23 | 40.72226 | 30.11442 | 19661 ft | 412 kts | 112° |
| 2026-04-29 19:23 | 40.71162 | 30.14969 | 20199 ft | 415 kts | 112° |
| 2026-04-29 19:23 | 40.70089 | 30.18516 | 20737 ft | 418 kts | 112° |
| 2026-04-29 19:24 | 40.68998 | 30.22087 | 21262 ft | 422 kts | 112° |
| 2026-04-29 19:24 | 40.67906 | 30.25682 | 21788 ft | 425 kts | 112° |
| 2026-04-29 19:24 | 40.66852 | 30.29337 | 22303 ft | 428 kts | 106° |
| 2026-04-29 19:24 | 40.66295 | 30.33198 | 22797 ft | 431 kts | 96° |
| 2026-04-29 19:25 | 40.65982 | 30.37138 | 23295 ft | 434 kts | 95° |
| 2026-04-29 19:25 | 40.65669 | 30.41110 | 23784 ft | 438 kts | 95° |
| 2026-04-29 19:25 | 40.65340 | 30.45111 | 24182 ft | 441 kts | 96° |
| 2026-04-29 19:25 | 40.65001 | 30.49140 | 24597 ft | 444 kts | 96° |
| 2026-04-29 19:26 | 40.64394 | 30.56248 | 25300 ft | 450 kts | 96° |
| 2026-04-29 19:26 | 40.64052 | 30.60351 | 25698 ft | 452 kts | 96° |
| 2026-04-29 19:26 | 40.63711 | 30.64427 | 26086 ft | 455 kts | 95° |
| 2026-04-29 19:27 | 40.63364 | 30.68579 | 26481 ft | 458 kts | 96° |
| 2026-04-29 19:27 | 40.62821 | 30.72727 | 26863 ft | 462 kts | 104° |
| 2026-04-29 19:27 | 40.61973 | 30.76814 | 27251 ft | 464 kts | 106° |
| 2026-04-29 19:27 | 40.61092 | 30.80912 | 27646 ft | 467 kts | 105° |
| 2026-04-29 19:28 | 40.60214 | 30.85040 | 28004 ft | 470 kts | 105° |
| 2026-04-29 19:28 | 40.59330 | 30.89193 | 28372 ft | 473 kts | 105° |
| 2026-04-29 19:28 | 40.58447 | 30.93373 | 28728 ft | 476 kts | 105° |
| 2026-04-29 19:28 | 40.57548 | 30.97575 | 29079 ft | 478 kts | 105° |
| 2026-04-29 19:29 | 40.56392 | 31.03000 | 29526 ft | 482 kts | 105° |
| 2026-04-29 19:29 | 40.55481 | 31.07256 | 29868 ft | 485 kts | 106° |
| 2026-04-29 19:29 | 40.54566 | 31.11531 | 30178 ft | 487 kts | 105° |
| 2026-04-29 19:29 | 40.53650 | 31.15834 | 30460 ft | 490 kts | 105° |
| 2026-04-29 19:30 | 40.52718 | 31.20152 | 30707 ft | 492 kts | 105° |
| 2026-04-29 19:30 | 40.51784 | 31.24490 | 30984 ft | 494 kts | 106° |
| 2026-04-29 19:30 | 40.50843 | 31.28849 | 31282 ft | 495 kts | 105° |
| 2026-04-29 19:30 | 40.49915 | 31.33142 | 31687 ft | 494 kts | 105° |
| 2026-04-29 19:31 | 40.48975 | 31.37486 | 32065 ft | 494 kts | 105° |
| 2026-04-29 19:31 | 40.48026 | 31.41824 | 32400 ft | 494 kts | 106° |
| 2026-04-29 19:31 | 40.47071 | 31.46162 | 32753 ft | 494 kts | 105° |
| 2026-04-29 19:31 | 40.46126 | 31.50504 | 33116 ft | 494 kts | 105° |
| 2026-04-29 19:32 | 40.45185 | 31.54840 | 33472 ft | 494 kts | 105° |
| 2026-04-29 19:32 | 40.44247 | 31.59171 | 33819 ft | 493 kts | 105° |
| 2026-04-29 19:32 | 40.43302 | 31.63504 | 34176 ft | 493 kts | 105° |
| 2026-04-29 19:32 | 40.42673 | 31.66360 | 34378 ft | 493 kts | 105° |
| 2026-04-29 19:33 | 40.41400 | 31.72136 | 34804 ft | 492 kts | 105° |
| 2026-04-29 19:33 | 40.40771 | 31.74989 | 35012 ft | 492 kts | 106° |
| 2026-04-29 19:33 | 40.39815 | 31.79296 | 35301 ft | 491 kts | 106° |
| 2026-04-29 19:33 | 40.38548 | 31.85052 | 35700 ft | 491 kts | 106° |
| 2026-04-29 19:34 | 40.37913 | 31.87899 | 35877 ft | 491 kts | 106° |
| 2026-04-29 19:34 | 40.36955 | 31.92201 | 36169 ft | 491 kts | 106° |
| 2026-04-29 19:34 | 40.36003 | 31.96502 | 36450 ft | 491 kts | 106° |
| 2026-04-29 19:34 | 40.35043 | 32.00800 | 36697 ft | 491 kts | 107° |
| 2026-04-29 19:35 | 40.34073 | 32.05088 | 36944 ft | 491 kts | 107° |
| 2026-04-29 19:35 | 40.33113 | 32.09386 | 37094 ft | 491 kts | 106° |
| 2026-04-29 19:35 | 40.32236 | 32.13703 | 37097 ft | 490 kts | 104° |
| 2026-04-29 19:36 | 40.30545 | 32.22424 | 37097 ft | 490 kts | 104° |
| 2026-04-29 19:36 | 40.28831 | 32.31073 | 37099 ft | 490 kts | 105° |
| 2026-04-29 19:37 | 40.27118 | 32.39650 | 37098 ft | 490 kts | 104° |
| 2026-04-29 19:37 | 40.25398 | 32.48296 | 37088 ft | 490 kts | 105° |
| 2026-04-29 19:38 | 40.23657 | 32.56931 | 37094 ft | 491 kts | 105° |
| 2026-04-29 19:38 | 40.21928 | 32.65567 | 37093 ft | 491 kts | 105° |
| 2026-04-29 19:39 | 40.20180 | 32.74201 | 37094 ft | 491 kts | 105° |
| 2026-04-29 19:39 | 40.18429 | 32.82823 | 37108 ft | 490 kts | 105° |
| 2026-04-29 19:40 | 40.16702 | 32.91456 | 37110 ft | 490 kts | 101° |
| 2026-04-29 19:40 | 40.16315 | 33.00309 | 37110 ft | 487 kts | 81° |
| 2026-04-29 19:41 | 40.18037 | 33.08781 | 37119 ft | 480 kts | 61° |
| 2026-04-29 19:41 | 40.21234 | 33.16399 | 37108 ft | 477 kts | 56° |
| 2026-04-29 19:42 | 40.24506 | 33.23944 | 37110 ft | 476 kts | 57° |
| 2026-04-29 19:42 | 40.27765 | 33.31491 | 37102 ft | 476 kts | 57° |
| 2026-04-29 19:43 | 40.31010 | 33.39052 | 37087 ft | 476 kts | 57° |
| 2026-04-29 19:43 | 40.34255 | 33.46599 | 37084 ft | 475 kts | 57° |
| 2026-04-29 19:44 | 40.37496 | 33.54164 | 37076 ft | 475 kts | 57° |
| 2026-04-29 19:44 | 40.40723 | 33.61741 | 37081 ft | 476 kts | 57° |
| 2026-04-29 19:45 | 40.43921 | 33.69354 | 37063 ft | 478 kts | 61° |
| 2026-04-29 19:45 | 40.46225 | 33.77586 | 37061 ft | 482 kts | 69° |
| 2026-04-29 19:46 | 40.48283 | 33.85967 | 37078 ft | 482 kts | 69° |
| 2026-04-29 19:46 | 40.50356 | 33.94298 | 37053 ft | 483 kts | 68° |
| 2026-04-29 19:47 | 40.52874 | 34.02460 | 37047 ft | 482 kts | 64° |
| 2026-04-29 19:47 | 40.55408 | 34.10626 | 37051 ft | 483 kts | 64° |
| 2026-04-29 19:48 | 40.57924 | 34.18817 | 37063 ft | 483 kts | 64° |
| 2026-04-29 19:48 | 40.60439 | 34.27030 | 37065 ft | 484 kts | 64° |
| 2026-04-29 19:49 | 40.62971 | 34.35300 | 37073 ft | 484 kts | 64° |
| 2026-04-29 19:49 | 40.65467 | 34.43538 | 37076 ft | 485 kts | 64° |
| 2026-04-29 19:50 | 40.67956 | 34.51733 | 37090 ft | 485 kts | 65° |
| 2026-04-29 19:50 | 40.70460 | 34.59988 | 37089 ft | 485 kts | 64° |
| 2026-04-29 19:51 | 40.72948 | 34.68261 | 37084 ft | 485 kts | 64° |
| 2026-04-29 19:51 | 40.75439 | 34.76539 | 37103 ft | 486 kts | 65° |
| 2026-04-29 19:52 | 40.77883 | 34.84856 | 37104 ft | 486 kts | 65° |
| 2026-04-29 19:52 | 40.80334 | 34.93193 | 37106 ft | 487 kts | 65° |
| 2026-04-29 19:53 | 40.82773 | 35.01530 | 37111 ft | 487 kts | 65° |
| 2026-04-29 19:53 | 40.85211 | 35.09875 | 37137 ft | 487 kts | 65° |
| 2026-04-29 19:54 | 40.88859 | 35.22412 | 37136 ft | 488 kts | 65° |
| 2026-04-29 19:54 | 40.91272 | 35.30806 | 37134 ft | 488 kts | 65° |
| 2026-04-29 19:55 | 40.93699 | 35.39196 | 37139 ft | 488 kts | 65° |
| 2026-04-29 19:55 | 40.96115 | 35.47598 | 37139 ft | 488 kts | 65° |
| 2026-04-29 19:56 | 40.98534 | 35.56001 | 37141 ft | 489 kts | 65° |
| 2026-04-29 19:56 | 41.00936 | 35.64417 | 37138 ft | 489 kts | 65° |
| 2026-04-29 19:57 | 41.02940 | 35.71413 | 37164 ft | 489 kts | 65° |
| 2026-04-29 19:57 | 41.05839 | 35.81213 | 37158 ft | 489 kts | 65° |
| 2026-04-29 19:58 | 41.08307 | 35.89612 | 37168 ft | 489 kts | 65° |
| 2026-04-29 19:58 | 41.10725 | 35.98046 | 37179 ft | 490 kts | 66° |
| 2026-04-29 19:59 | 41.13090 | 36.06518 | 37190 ft | 490 kts | 66° |
| 2026-04-29 19:59 | 41.15470 | 36.14980 | 37199 ft | 490 kts | 66° |
| 2026-04-29 20:00 | 41.17834 | 36.23423 | 37202 ft | 490 kts | 66° |
| 2026-04-29 20:00 | 41.20198 | 36.31910 | 37202 ft | 491 kts | 66° |
| 2026-04-29 20:01 | 41.22550 | 36.40418 | 37213 ft | 490 kts | 66° |
| 2026-04-29 20:01 | 41.24900 | 36.48931 | 37218 ft | 492 kts | 69° |
| 2026-04-29 20:02 | 41.26177 | 36.57896 | 37226 ft | 498 kts | 87° |
| 2026-04-29 20:02 | 41.25811 | 36.65540 | 37225 ft | 500 kts | 96° |
| 2026-04-29 20:03 | 41.24983 | 36.76285 | 37231 ft | 499 kts | 95° |
| 2026-04-29 20:03 | 41.24295 | 36.85465 | 37234 ft | 500 kts | 95° |
| 2026-04-29 20:04 | 41.23595 | 36.94653 | 37175 ft | 500 kts | 95° |
| 2026-04-29 20:04 | 41.23250 | 36.99243 | 36912 ft | 498 kts | 95° |
| 2026-04-29 20:04 | 41.22905 | 37.03817 | 36641 ft | 497 kts | 95° |
| 2026-04-29 20:05 | 41.22550 | 37.08385 | 36384 ft | 497 kts | 95° |
| 2026-04-29 20:05 | 41.22194 | 37.12951 | 36106 ft | 496 kts | 95° |
| 2026-04-29 20:05 | 41.21843 | 37.17513 | 35305 ft | 500 kts | 94° |
| 2026-04-29 20:05 | 41.21480 | 37.22130 | 34502 ft | 504 kts | 94° |
| 2026-04-29 20:06 | 41.21127 | 37.26762 | 33745 ft | 504 kts | 93° |
| 2026-04-29 20:06 | 41.20794 | 37.31371 | 33234 ft | 498 kts | 93° |
| 2026-04-29 20:06 | 41.20466 | 37.35932 | 32660 ft | 494 kts | 94° |
| 2026-04-29 20:06 | 41.20130 | 37.40449 | 32099 ft | 489 kts | 94° |
| 2026-04-29 20:07 | 41.19800 | 37.44923 | 31545 ft | 485 kts | 94° |
| 2026-04-29 20:07 | 41.19465 | 37.49367 | 31003 ft | 482 kts | 94° |
| 2026-04-29 20:07 | 41.19130 | 37.53788 | 30427 ft | 480 kts | 94° |
| 2026-04-29 20:07 | 41.18839 | 37.58188 | 29818 ft | 477 kts | 92° |
| 2026-04-29 20:08 | 41.18643 | 37.62554 | 29284 ft | 471 kts | 93° |
| 2026-04-29 20:08 | 41.18430 | 37.65414 | 28928 ft | 468 kts | 95° |
| 2026-04-29 20:08 | 41.17927 | 37.71123 | 28208 ft | 463 kts | 96° |
| 2026-04-29 20:08 | 41.17562 | 37.75344 | 27674 ft | 458 kts | 96° |
| 2026-04-29 20:09 | 41.17208 | 37.79526 | 27156 ft | 454 kts | 96° |
| 2026-04-29 20:09 | 41.16854 | 37.83667 | 26639 ft | 450 kts | 96° |
| 2026-04-29 20:09 | 41.16504 | 37.87776 | 26133 ft | 446 kts | 96° |
| 2026-04-29 20:09 | 41.16165 | 37.91847 | 25629 ft | 442 kts | 96° |
| 2026-04-29 20:10 | 41.15847 | 37.95884 | 25129 ft | 438 kts | 96° |
| 2026-04-29 20:10 | 41.15528 | 37.99885 | 24633 ft | 435 kts | 96° |
| 2026-04-29 20:10 | 41.15210 | 38.03860 | 24136 ft | 432 kts | 96° |
| 2026-04-29 20:10 | 41.14891 | 38.07810 | 23606 ft | 429 kts | 96° |
| 2026-04-29 20:11 | 41.14582 | 38.11728 | 23088 ft | 425 kts | 96° |
| 2026-04-29 20:11 | 41.14274 | 38.15602 | 22624 ft | 420 kts | 96° |
| 2026-04-29 20:11 | 41.13960 | 38.19435 | 22129 ft | 416 kts | 96° |
| 2026-04-29 20:11 | 41.13645 | 38.23236 | 21657 ft | 413 kts | 96° |
| 2026-04-29 20:12 | 41.13328 | 38.27009 | 21182 ft | 410 kts | 96° |
| 2026-04-29 20:12 | 41.13012 | 38.30755 | 20698 ft | 407 kts | 96° |
| 2026-04-29 20:12 | 41.12704 | 38.34479 | 20221 ft | 405 kts | 96° |
| 2026-04-29 20:12 | 41.12399 | 38.38184 | 19744 ft | 403 kts | 96° |
| 2026-04-29 20:13 | 41.12094 | 38.41868 | 19274 ft | 401 kts | 96° |
| 2026-04-29 20:13 | 41.11897 | 38.44294 | 18961 ft | 400 kts | 96° |
| 2026-04-29 20:13 | 41.11597 | 38.47955 | 18494 ft | 398 kts | 96° |
| 2026-04-29 20:13 | 41.11285 | 38.51594 | 17975 ft | 396 kts | 96° |
| 2026-04-29 20:14 | 41.10983 | 38.55201 | 17544 ft | 392 kts | 96° |
| 2026-04-29 20:14 | 41.10682 | 38.58777 | 17088 ft | 389 kts | 96° |
| 2026-04-29 20:14 | 41.10386 | 38.62323 | 16641 ft | 386 kts | 96° |
| 2026-04-29 20:14 | 41.10083 | 38.65843 | 16205 ft | 383 kts | 97° |
| 2026-04-29 20:15 | 41.09784 | 38.69341 | 15767 ft | 380 kts | 97° |
| 2026-04-29 20:15 | 41.09475 | 38.72807 | 15339 ft | 378 kts | 97° |
| 2026-04-29 20:15 | 41.09163 | 38.76250 | 14908 ft | 375 kts | 97° |
| 2026-04-29 20:15 | 41.08853 | 38.79670 | 14486 ft | 373 kts | 97° |
| 2026-04-29 20:16 | 41.08546 | 38.83070 | 14037 ft | 371 kts | 97° |
| 2026-04-29 20:16 | 41.08238 | 38.86460 | 13556 ft | 369 kts | 97° |
| 2026-04-29 20:16 | 41.08071 | 38.89821 | 12941 ft | 363 kts | 84° |
| 2026-04-29 20:16 | 41.08456 | 38.93085 | 12519 ft | 354 kts | 80° |
| 2026-04-29 20:17 | 41.08831 | 38.96280 | 12262 ft | 346 kts | 81° |
| 2026-04-29 20:17 | 41.09144 | 38.99366 | 12009 ft | 340 kts | 82° |
| 2026-04-29 20:17 | 41.09435 | 39.02456 | 11756 ft | 336 kts | 83° |
| 2026-04-29 20:17 | 41.09721 | 39.05519 | 11506 ft | 334 kts | 83° |
| 2026-04-29 20:18 | 41.10006 | 39.08565 | 11132 ft | 331 kts | 83° |
| 2026-04-29 20:18 | 41.10290 | 39.11614 | 10570 ft | 335 kts | 83° |
| 2026-04-29 20:18 | 41.10568 | 39.14677 | 10167 ft | 332 kts | 83° |
| 2026-04-29 20:18 | 41.10840 | 39.17661 | 10013 ft | 320 kts | 83° |
| 2026-04-29 20:19 | 41.11103 | 39.20533 | 9856 ft | 307 kts | 83° |
| 2026-04-29 20:19 | 41.11354 | 39.23302 | 9293 ft | 300 kts | 83° |
| 2026-04-29 20:19 | 41.11599 | 39.26031 | 8661 ft | 295 kts | 83° |
| 2026-04-29 20:19 | 41.11846 | 39.28710 | 8037 ft | 291 kts | 83° |
| 2026-04-29 20:20 | 41.12085 | 39.31348 | 7435 ft | 285 kts | 84° |
| 2026-04-29 20:20 | 41.12311 | 39.33939 | 6818 ft | 280 kts | 86° |
| 2026-04-29 20:20 | 41.12260 | 39.36493 | 6163 ft | 275 kts | 100° |
| 2026-04-29 20:20 | 41.11760 | 39.38923 | 5538 ft | 273 kts | 113° |
| 2026-04-29 20:21 | 41.10999 | 39.41228 | 4983 ft | 272 kts | 115° |
| 2026-04-29 20:21 | 41.10226 | 39.43511 | 4449 ft | 272 kts | 115° |
| 2026-04-29 20:21 | 41.09457 | 39.45791 | 4000 ft | 270 kts | 115° |
| 2026-04-29 20:21 | 41.08697 | 39.48053 | 3573 ft | 267 kts | 114° |
| 2026-04-29 20:22 | 41.08019 | 39.50326 | 3077 ft | 264 kts | 109° |
| 2026-04-29 20:22 | 41.07439 | 39.52563 | 2996 ft | 248 kts | 109° |
| 2026-04-29 20:22 | 41.06895 | 39.54643 | 2998 ft | 231 kts | 109° |
| 2026-04-29 20:22 | 41.06379 | 39.56608 | 3004 ft | 223 kts | 110° |
| 2026-04-29 20:23 | 41.05850 | 39.58472 | 3005 ft | 210 kts | 113° |
| 2026-04-29 20:23 | 41.05299 | 39.60230 | 3009 ft | 202 kts | 113° |
| 2026-04-29 20:23 | 41.04776 | 39.61907 | 2978 ft | 194 kts | 113° |
| 2026-04-29 20:23 | 41.04267 | 39.63555 | 2663 ft | 193 kts | 113° |
| 2026-04-29 20:24 | 41.03764 | 39.65188 | 2373 ft | 190 kts | 112° |
| 2026-04-29 20:24 | 41.03268 | 39.66798 | 2081 ft | 188 kts | 112° |
| 2026-04-29 20:24 | 41.02782 | 39.68373 | 1800 ft | 179 kts | 112° |
| 2026-04-29 20:24 | 41.02330 | 39.69839 | 1532 ft | 163 kts | 112° |
| 2026-04-29 20:25 | 41.01918 | 39.71171 | 1293 ft | 150 kts | 112° |
| 2026-04-29 20:25 | 41.01536 | 39.72408 | 1068 ft | 142 kts | 112° |
| 2026-04-29 20:25 | 41.01165 | 39.73611 | 842 ft | 140 kts | 112° |
| 2026-04-29 20:25 | 41.00798 | 39.74805 | 645 ft | 140 kts | 112° |
| 2026-04-29 20:26 | 41.00431 | 39.75995 | 430 ft | 140 kts | 111° |
| 2026-04-29 20:26 | 41.00060 | 39.77186 | 232 ft | 140 kts | 111° |
| 2026-04-29 20:26 | 40.99703 | 39.78343 | 107 ft | 120 kts | 112° |
| 2026-04-29 20:26 | 40.99467 | 39.79111 | 102 ft | 55 kts | 112° |
| 2026-04-29 20:27 | 40.99387 | 39.79282 | 106 ft | 13 kts | 185° |
| 2026-04-29 20:27 | 40.99368 | 39.79254 | 104 ft | 5 kts | 252° |
| 2026-04-29 20:27 | 40.99350 | 39.79178 | 103 ft | 8 kts | 252° |
| 2026-04-29 20:27 | 40.99332 | 39.79098 | 102 ft | 9 kts | 262° |
| 2026-04-29 20:28 | 40.99342 | 39.79033 | 106 ft | 7 kts | 292° |
| 2026-04-29 20:28 | 40.99368 | 39.78949 | 113 ft | 8 kts | 292° |
| 2026-04-29 20:28 | 40.99403 | 39.78838 | 112 ft | 18 kts | 292° |
| 2026-04-29 20:28 | 40.99449 | 39.78688 | 113 ft | 18 kts | 292° |
| 2026-04-29 20:29 | 40.99496 | 39.78539 | 114 ft | 18 kts | 292° |
| 2026-04-29 20:29 | 40.99538 | 39.78404 | 114 ft | 16 kts | 292° |
| 2026-04-29 20:29 | 40.99583 | 39.78261 | 114 ft | 15 kts | 292° |
| 2026-04-29 20:29 | 40.99612 | 39.78166 | 114 ft | 10 kts | 292° |
| 2026-04-29 20:30 | 40.99612 | 39.78109 | 115 ft | 3 kts | 223° |
| 2026-04-29 20:30 | 40.99586 | 39.78093 | 115 ft | 4 kts | 203° |
| 2026-04-29 20:30 | 40.99565 | 39.78082 | 113 ft | 1 kts | 202° |